Time;durP1;ratioP1;P1;durP2;ratioP2;P2;SDS_P1;SDS_P2;PMS_P1;PMS_P2;Temp;Humidity;BMP_temperature;BMP_pressure;BME280_temperature;BME280_humidity;BME280_pressure;Samples;Min_cycle;Max_cycle;Signal;HPM_P1;HPM_P2
2022/12/14 00:00:10;;;;;;;24.40;14.23;;;-0.90;99.90;;;;;;5036120;28;20486;-88
2022/12/14 00:02:45;;;;;;;24.97;14.67;;;-0.80;99.90;;;;;;5036668;28;20512;-86
2022/12/14 00:05:19;;;;;;;24.40;13.90;;;-0.80;99.90;;;;;;5036725;28;20444;-88
2022/12/14 00:07:51;;;;;;;25.17;14.10;;;-0.80;99.90;;;;;;5035435;28;20772;-89
2022/12/14 00:10:19;;;;;;;22.83;13.97;;;-0.80;99.90;;;;;;5026262;28;20824;-84
2022/12/14 00:12:47;;;;;;;22.40;14.27;;;-0.90;99.90;;;;;;5032054;28;20863;-81
2022/12/14 00:15:13;;;;;;;26.40;14.20;;;-0.80;99.90;;;;;;5036502;28;20448;-87
2022/12/14 00:17:46;;;;;;;21.83;13.97;;;-0.80;99.90;;;;;;5035861;28;20916;-86
2022/12/14 00:20:14;;;;;;;21.23;13.47;;;-1.00;99.90;;;;;;5036244;28;20448;-84
2022/12/14 00:22:42;;;;;;;26.23;15.03;;;-1.00;99.90;;;;;;5036078;28;20484;-88
2022/12/14 00:25:10;;;;;;;24.27;13.90;;;-1.00;99.90;;;;;;5036507;28;20448;-89
2022/12/14 00:27:43;;;;;;;26.00;14.43;;;-1.00;99.90;;;;;;5036012;28;20455;-87
2022/12/14 00:30:17;;;;;;;24.70;14.53;;;-1.20;99.90;;;;;;5022451;28;20452;-88
2022/12/14 00:32:47;;;;;;;24.00;14.47;;;-1.30;99.90;;;;;;5036621;28;20455;-87
2022/12/14 00:35:16;;;;;;;21.47;13.90;;;-1.20;99.90;;;;;;5035902;28;20464;-86
2022/12/14 00:37:46;;;;;;;29.47;14.50;;;-1.20;99.90;;;;;;5036276;28;20480;-87
2022/12/14 00:40:18;;;;;;;23.13;13.80;;;-1.20;99.90;;;;;;5035865;28;20448;-89
2022/12/14 00:42:51;;;;;;;24.10;13.50;;;-1.30;99.90;;;;;;5035197;28;20488;-88
2022/12/14 00:45:24;;;;;;;22.67;13.90;;;-1.40;99.90;;;;;;5035750;28;20478;-88
2022/12/14 00:47:50;;;;;;;28.52;18.25;;;-1.40;99.90;;;;;;5035223;28;20442;-87
2022/12/14 00:50:20;;;;;;;25.83;15.50;;;-1.30;99.90;;;;;;5035342;28;20651;-87
2022/12/14 00:52:50;;;;;;;23.97;14.07;;;-1.20;99.90;;;;;;5035367;28;20440;-90
2022/12/14 00:55:19;;;;;;;26.10;14.10;;;-1.20;99.90;;;;;;5035932;28;20471;-84
2022/12/14 00:57:45;;;;;;;26.50;14.53;;;-1.20;99.90;;;;;;5035572;28;20435;-88
2022/12/14 01:00:16;;;;;;;22.73;13.57;;;-1.20;99.90;;;;;;5035494;28;20444;-85
2022/12/14 01:02:48;;;;;;;27.50;14.97;;;-1.10;99.90;;;;;;5035239;28;20488;-84
2022/12/14 01:05:17;;;;;;;25.80;15.07;;;-1.10;99.90;;;;;;5035759;28;20437;-88
2022/12/14 01:07:46;;;;;;;24.20;14.23;;;-1.00;99.90;;;;;;5035373;28;20441;-89
2022/12/14 01:10:17;;;;;;;23.23;13.53;;;-1.00;99.90;;;;;;5034999;28;20940;-89
2022/12/14 01:12:45;;;;;;;19.03;12.77;;;-1.00;99.90;;;;;;5034966;28;20425;-87
2022/12/14 01:15:13;;;;;;;20.80;13.70;;;-1.10;99.90;;;;;;5035437;28;20441;-87
2022/12/14 01:17:43;;;;;;;22.67;13.23;;;-1.20;99.90;;;;;;5035227;28;20530;-88
2022/12/14 01:20:11;;;;;;;26.97;15.07;;;-1.20;99.90;;;;;;5035114;28;20440;-88
2022/12/14 01:22:41;;;;;;;25.23;13.80;;;-1.40;99.90;;;;;;5035078;28;20472;-83
2022/12/14 01:25:09;;;;;;;25.50;14.07;;;-1.50;99.90;;;;;;5035203;28;20461;-84
2022/12/14 01:27:38;;;;;;;26.33;14.97;;;-1.40;99.90;;;;;;5035022;28;20498;-88
2022/12/14 01:30:07;;;;;;;26.27;14.67;;;-1.30;99.90;;;;;;5034778;28;20941;-87
2022/12/14 01:32:35;;;;;;;25.87;15.03;;;-1.40;99.90;;;;;;5035051;28;20457;-84
2022/12/14 01:35:01;;;;;;;25.13;14.40;;;-1.30;99.90;;;;;;5035034;28;20436;-87
2022/12/14 01:37:28;;;;;;;25.87;14.80;;;-1.30;99.90;;;;;;5034827;28;20927;-82
2022/12/14 01:39:56;;;;;;;22.67;14.47;;;-1.20;99.90;;;;;;5034057;28;20440;-83
2022/12/14 01:42:23;;;;;;;23.77;13.40;;;-1.40;99.90;;;;;;5034268;28;20485;-85
2022/12/14 01:44:54;;;;;;;22.70;13.50;;;-1.20;99.90;;;;;;5034528;28;20439;-82
2022/12/14 01:47:27;;;;;;;27.63;14.03;;;-1.20;99.90;;;;;;5034505;28;20433;-86
2022/12/14 01:49:59;;;;;;;19.77;12.67;;;-1.20;99.90;;;;;;5034531;28;20453;-88
2022/12/14 01:52:33;;;;;;;23.00;14.43;;;-1.20;99.90;;;;;;5033587;28;20920;-77
2022/12/14 01:55:04;;;;;;;26.93;14.23;;;-1.10;99.90;;;;;;5034264;28;20448;-86
2022/12/14 01:57:37;;;;;;;24.03;13.67;;;-1.10;99.90;;;;;;5034392;28;20433;-86
2022/12/14 02:00:13;;;;;;;23.73;13.53;;;-1.10;99.90;;;;;;5034437;28;20448;-86
2022/12/14 02:02:45;;;;;;;22.33;13.50;;;-1.00;99.90;;;;;;5034447;28;20480;-87
2022/12/14 02:05:20;;;;;;;26.50;14.33;;;-1.00;99.90;;;;;;5034493;28;20441;-86
2022/12/14 02:07:51;;;;;;;25.80;14.17;;;-1.00;99.90;;;;;;5034332;28;20439;-83
2022/12/14 02:10:19;;;;;;;25.23;14.23;;;-1.00;99.90;;;;;;5033898;28;20480;-85
2022/12/14 02:13:05;;;;;;;23.03;13.70;;;-0.90;99.90;;;;;;5034496;28;20437;-89
2022/12/14 02:15:34;;;;;;;24.50;13.00;;;-0.90;99.90;;;;;;5034312;28;20432;-85
2022/12/14 02:18:04;;;;;;;22.00;13.37;;;-0.90;99.90;;;;;;5033623;28;20452;-79
2022/12/14 02:20:54;;;;;;;20.83;12.57;;;-0.90;99.90;;;;;;5033380;28;20452;-81
2022/12/14 02:23:57;;;;;;;21.90;12.77;;;-0.80;99.90;;;;;;5033497;28;20499;-88
2022/12/14 02:27:01;;;;;;;22.73;13.00;;;-0.80;99.90;;;;;;5034349;28;20432;-85
2022/12/14 02:29:52;;;;;;;21.80;12.13;;;-0.70;99.90;;;;;;5033828;28;20935;-86
2022/12/14 02:32:30;;;;;;;24.23;13.60;;;-0.70;99.90;;;;;;5033677;28;20429;-86
2022/12/14 02:35:24;;;;;;;19.83;12.57;;;-0.70;99.90;;;;;;5034280;28;20460;-86
2022/12/14 02:38:16;;;;;;;23.63;13.53;;;-0.70;99.90;;;;;;5033612;28;20829;-87
2022/12/14 02:40:54;;;;;;;23.47;13.37;;;-0.60;99.90;;;;;;5034185;28;20444;-87
2022/12/14 02:43:30;;;;;;;20.63;12.70;;;-0.70;99.90;;;;;;5033972;28;20480;-89
2022/12/14 02:46:09;;;;;;;22.97;12.87;;;-0.70;99.90;;;;;;5033273;28;20443;-76
2022/12/14 02:48:42;;;;;;;26.93;14.13;;;-0.70;99.90;;;;;;5033305;28;20444;-76
2022/12/14 02:51:22;;;;;;;25.83;13.27;;;-0.60;99.90;;;;;;5032943;28;20448;-82
2022/12/14 02:53:56;;;;;;;22.03;12.87;;;-0.60;99.90;;;;;;5033489;28;20439;-81
2022/12/14 02:56:37;;;;;;;21.50;12.60;;;-0.90;99.90;;;;;;5033498;28;20438;-81
2022/12/14 02:59:08;;;;;;;21.43;12.67;;;-1.00;99.90;;;;;;5033809;28;20456;-86
2022/12/14 03:01:39;;;;;;;21.70;12.80;;;-0.70;99.90;;;;;;5033885;28;20479;-85
2022/12/14 03:04:09;;;;;;;22.53;12.53;;;-0.70;99.90;;;;;;5034005;28;20440;-88
2022/12/14 03:06:36;;;;;;;20.83;11.83;;;-0.60;99.90;;;;;;5033562;28;20912;-78
2022/12/14 03:09:07;;;;;;;21.83;13.20;;;-0.60;99.90;;;;;;5032630;28;20804;-77
2022/12/14 03:11:40;;;;;;;19.77;12.20;;;-0.60;99.90;;;;;;5033037;28;20475;-77
2022/12/14 03:14:10;;;;;;;22.70;13.03;;;-0.50;99.90;;;;;;5032724;28;20951;-82
2022/12/14 03:16:43;;;;;;;22.20;12.40;;;-0.50;99.90;;;;;;5033030;28;20448;-83
2022/12/14 03:19:16;;;;;;;20.17;12.57;;;-0.50;99.90;;;;;;5032793;28;20797;-79
2022/12/14 03:21:49;;;;;;;23.37;13.37;;;-0.60;99.90;;;;;;5032583;28;20495;-86
2022/12/14 03:24:24;;;;;;;20.10;12.60;;;-0.60;99.90;;;;;;5033695;28;20814;-85
2022/12/14 03:27:02;;;;;;;24.03;13.63;;;-0.50;99.90;;;;;;5033693;28;20447;-81
2022/12/14 03:29:32;;;;;;;21.57;12.90;;;-0.60;99.90;;;;;;5033335;28;20455;-84
2022/12/14 03:32:10;;;;;;;21.90;13.83;;;-0.60;99.90;;;;;;5033232;28;20449;-84
2022/12/14 03:34:42;;;;;;;21.77;12.50;;;-0.60;99.90;;;;;;5033371;28;20458;-83
2022/12/14 03:37:13;;;;;;;20.13;13.80;;;-0.50;99.90;;;;;;5033007;28;20482;-79
2022/12/14 03:39:44;;;;;;;26.47;14.20;;;-0.60;99.90;;;;;;5032564;28;20472;-82
2022/12/14 03:42:20;;;;;;;22.93;12.93;;;-0.60;99.90;;;;;;5032026;28;20488;-78
2022/12/14 03:44:54;;;;;;;21.33;12.03;;;-0.70;99.90;;;;;;5035900;28;20510;-78
2022/12/14 03:47:38;;;;;;;20.60;12.67;;;-0.80;99.90;;;;;;5035879;28;20978;-81
2022/12/14 03:50:11;;;;;;;22.77;12.83;;;-1.00;99.90;;;;;;5035999;28;20440;-76
2022/12/14 03:52:44;;;;;;;22.73;14.13;;;-1.00;99.90;;;;;;5036066;28;20429;-86
2022/12/14 03:55:23;;;;;;;23.90;13.80;;;-0.80;99.90;;;;;;5036559;28;20437;-83
2022/12/14 03:58:05;;;;;;;22.17;12.43;;;-0.60;99.90;;;;;;5036349;28;20436;-83
2022/12/14 04:00:37;;;;;;;21.77;13.03;;;-0.70;99.90;;;;;;5036165;28;20582;-82
2022/12/14 04:03:13;;;;;;;23.20;13.27;;;-1.00;99.90;;;;;;5036056;28;20484;-86
2022/12/14 04:05:52;;;;;;;25.23;13.70;;;-1.20;99.90;;;;;;5035932;28;20436;-88
2022/12/14 04:08:26;;;;;;;21.50;12.27;;;-1.00;99.90;;;;;;5035685;28;20455;-77
2022/12/14 04:19:44;;;;;;;23.20;13.20;;;-0.90;99.90;;;;;;4993265;28;20437;-78
2022/12/14 04:22:13;;;;;;;20.50;12.43;;;-0.70;99.90;;;;;;4993731;28;20480;-78
2022/12/14 04:27:35;;;;;;;23.17;13.47;;;-0.50;99.90;;;;;;5035195;28;21042;-80
2022/12/14 04:30:03;;;;;;;23.20;13.87;;;-0.50;99.90;;;;;;5034048;28;20456;-78
2022/12/14 04:32:35;;;;;;;18.87;12.47;;;-0.70;99.90;;;;;;5032164;28;20456;-78
2022/12/14 04:35:10;;;;;;;19.63;12.30;;;-0.60;99.90;;;;;;5028874;28;20479;-78
2022/12/14 04:37:41;;;;;;;24.03;13.23;;;-0.60;99.90;;;;;;5031687;28;20464;-79
2022/12/14 04:40:12;;;;;;;24.00;12.33;;;-0.60;99.90;;;;;;5028508;28;20452;-81
2022/12/14 04:42:45;;;;;;;19.33;13.03;;;-0.60;99.90;;;;;;5031858;28;21021;-77
2022/12/14 04:45:17;;;;;;;24.20;12.90;;;-0.50;99.90;;;;;;5031976;28;20476;-79
2022/12/14 04:47:50;;;;;;;22.20;13.10;;;-0.60;99.90;;;;;;5034588;28;20449;-81
2022/12/14 04:50:26;;;;;;;23.70;13.17;;;-0.60;99.90;;;;;;5033085;28;20444;-78
2022/12/14 04:53:00;;;;;;;19.77;12.77;;;-0.60;99.90;;;;;;5035023;28;20505;-79
2022/12/14 04:55:33;;;;;;;22.73;13.13;;;-0.70;99.90;;;;;;5033589;28;20853;-78
2022/12/14 04:58:05;;;;;;;21.77;13.70;;;-0.50;99.90;;;;;;5035035;28;20448;-79
2022/12/14 05:00:36;;;;;;;23.57;14.07;;;-0.40;99.90;;;;;;5034655;28;20455;-80
2022/12/14 05:03:22;;;;;;;21.10;13.50;;;-0.40;99.90;;;;;;5034334;28;20488;-77
2022/12/14 05:05:59;;;;;;;21.63;12.30;;;-0.40;99.90;;;;;;5033585;28;20843;-81
2022/12/14 05:08:42;;;;;;;26.43;13.87;;;-0.40;99.90;;;;;;5034728;28;20444;-82
2022/12/14 05:11:14;;;;;;;26.87;13.93;;;-0.30;99.90;;;;;;5034738;28;20459;-82
2022/12/14 05:13:45;;;;;;;21.40;13.77;;;-0.20;99.90;;;;;;5034804;28;20455;-78
2022/12/14 05:16:15;;;;;;;23.87;13.70;;;-0.20;99.90;;;;;;5034388;28;20447;-77
2022/12/14 05:18:43;;;;;;;22.40;13.77;;;-0.40;99.90;;;;;;5034238;28;20912;-79
2022/12/14 05:21:45;;;;;;;20.73;13.53;;;-0.60;99.90;;;;;;5034655;28;20453;-82
2022/12/14 05:24:01;;;;;;;24.83;14.13;;;-0.50;99.90;;;;;;5034129;28;20492;-80
2022/12/14 05:26:28;;;;;;;22.07;12.47;;;-0.50;99.90;;;;;;5034099;28;20452;-79
2022/12/14 05:28:55;;;;;;;20.23;12.97;;;-0.70;99.90;;;;;;5034378;28;20495;-76
2022/12/14 05:31:22;;;;;;;26.53;14.80;;;-0.60;99.90;;;;;;5034098;28;20455;-78
2022/12/14 05:33:49;;;;;;;23.73;13.37;;;-0.40;99.90;;;;;;5033782;28;20456;-78
2022/12/14 05:36:18;;;;;;;26.43;14.07;;;-0.50;99.90;;;;;;5034389;28;20433;-84
2022/12/14 05:38:45;;;;;;;23.37;14.13;;;-0.70;99.90;;;;;;5034495;28;20469;-85
2022/12/14 05:41:12;;;;;;;24.37;13.87;;;-0.90;99.90;;;;;;5034287;28;20451;-80
2022/12/14 05:43:38;;;;;;;24.03;13.90;;;-0.90;99.90;;;;;;5034174;28;20487;-85
2022/12/14 05:46:06;;;;;;;22.80;13.60;;;-0.80;99.90;;;;;;5034806;28;20436;-82
2022/12/14 05:48:34;;;;;;;27.70;13.33;;;-0.60;99.90;;;;;;5034258;28;20432;-86
2022/12/14 05:51:08;;;;;;;21.60;13.37;;;-0.50;99.90;;;;;;5034465;28;20448;-85
2022/12/14 05:53:37;;;;;;;22.60;13.27;;;-0.60;99.90;;;;;;5034570;28;20433;-85
2022/12/14 05:56:05;;;;;;;24.40;14.70;;;-0.80;99.90;;;;;;5034142;28;21038;-84
2022/12/14 05:58:32;;;;;;;25.83;13.53;;;-0.90;99.90;;;;;;5034522;28;20448;-83
2022/12/14 06:01:01;;;;;;;26.23;13.90;;;-0.70;99.90;;;;;;5033358;28;20455;-83
2022/12/14 06:03:27;;;;;;;26.20;13.83;;;-0.90;99.90;;;;;;5034832;28;20900;-83
2022/12/14 06:05:55;;;;;;;26.20;14.43;;;-1.00;99.90;;;;;;5029459;28;20953;-82
2022/12/14 06:08:21;;;;;;;24.03;13.93;;;-0.80;99.90;;;;;;5028287;28;20536;-81
2022/12/14 06:10:49;;;;;;;23.43;13.47;;;-0.80;99.90;;;;;;5031855;28;20480;-82
2022/12/14 06:13:16;;;;;;;26.13;16.25;;;-0.60;99.90;;;;;;5033030;28;20430;-77
2022/12/14 06:15:43;;;;;;;25.97;14.80;;;-0.60;99.90;;;;;;5029818;28;20207;-79
2022/12/14 06:18:10;;;;;;;23.63;13.93;;;-1.10;99.90;;;;;;5022277;28;20476;-81
2022/12/14 06:20:36;;;;;;;23.33;14.07;;;-1.20;99.90;;;;;;5032948;28;20488;-78
2022/12/14 06:23:09;;;;;;;21.87;13.57;;;-1.00;99.90;;;;;;5033137;28;20510;-82
2022/12/14 06:25:42;;;;;;;26.77;14.43;;;-0.80;99.90;;;;;;5033570;28;20445;-79
2022/12/14 06:28:12;;;;;;;25.63;15.10;;;-0.70;99.90;;;;;;5033248;28;20960;-79
2022/12/14 06:30:39;;;;;;;22.97;14.03;;;-0.70;99.90;;;;;;5033022;28;20944;-85
2022/12/14 06:33:07;;;;;;;28.30;14.27;;;-0.60;99.90;;;;;;5033784;28;20436;-84
2022/12/14 06:35:33;;;;;;;21.50;12.90;;;-0.80;99.90;;;;;;5033692;28;20440;-83
2022/12/14 06:38:00;;;;;;;21.37;13.60;;;-0.80;99.90;;;;;;5033495;28;20507;-84
2022/12/14 06:40:36;;;;;;;18.73;13.07;;;-0.80;99.90;;;;;;5033930;28;20448;-86
2022/12/14 06:43:09;;;;;;;23.87;13.83;;;-1.10;99.90;;;;;;5020058;28;20487;-86
2022/12/14 06:45:38;;;;;;;20.43;13.23;;;-0.80;99.90;;;;;;5033562;28;20461;-86
2022/12/14 06:48:08;;;;;;;22.87;13.27;;;-0.80;99.90;;;;;;5033844;28;20471;-88
2022/12/14 06:50:35;;;;;;;20.70;13.37;;;-0.80;99.90;;;;;;5033835;28;20449;-84
2022/12/14 06:53:11;;;;;;;28.50;13.80;;;-0.80;99.90;;;;;;5033680;28;20447;-86
2022/12/14 06:55:41;;;;;;;26.83;13.63;;;-0.90;99.90;;;;;;5033993;28;20432;-85
2022/12/14 06:58:14;;;;;;;25.33;13.37;;;-0.90;99.90;;;;;;5033629;28;20448;-86
2022/12/14 07:00:43;;;;;;;23.60;13.70;;;-1.00;99.90;;;;;;5033687;28;20432;-86
2022/12/14 07:03:11;;;;;;;20.67;12.40;;;-0.80;99.90;;;;;;5033511;28;20472;-85
2022/12/14 07:05:39;;;;;;;21.27;12.80;;;-0.90;99.90;;;;;;5033762;28;20942;-84
2022/12/14 07:08:11;;;;;;;27.93;14.13;;;-0.90;99.90;;;;;;5033663;28;20437;-85
2022/12/14 07:10:39;;;;;;;27.83;13.63;;;-0.90;99.90;;;;;;5033504;28;20454;-85
2022/12/14 07:13:09;;;;;;;22.87;12.50;;;-1.10;99.90;;;;;;5033896;28;20932;-81
2022/12/14 07:15:43;;;;;;;22.37;12.87;;;-1.10;99.90;;;;;;5033970;28;20456;-85
2022/12/14 07:18:11;;;;;;;25.87;13.20;;;-1.30;99.90;;;;;;5036341;28;20455;-88
2022/12/14 07:20:39;;;;;;;22.40;12.40;;;-1.30;99.90;;;;;;5037367;28;20437;-81
2022/12/14 07:23:07;;;;;;;22.37;12.87;;;-1.20;99.90;;;;;;5036921;28;20997;-85
2022/12/14 07:25:34;;;;;;;21.40;12.87;;;-1.30;99.90;;;;;;5037366;28;20444;-88
2022/12/14 07:28:07;;;;;;;22.03;13.33;;;-1.10;99.90;;;;;;5037137;28;20432;-87
2022/12/14 07:30:35;;;;;;;20.93;12.90;;;-1.20;99.90;;;;;;5036944;28;20818;-81
2022/12/14 07:33:04;;;;;;;22.37;13.50;;;-1.20;99.90;;;;;;5036614;28;20804;-82
2022/12/14 07:35:32;;;;;;;21.03;13.77;;;-1.20;99.90;;;;;;5036744;28;20436;-83
2022/12/14 07:38:00;;;;;;;24.40;14.10;;;-1.20;99.90;;;;;;5035897;28;20531;-84
2022/12/14 07:40:27;;;;;;;24.50;13.67;;;-1.30;99.90;;;;;;5036635;28;20441;-85
2022/12/14 07:42:55;;;;;;;20.63;13.10;;;-1.20;99.90;;;;;;5026665;28;20473;-84
2022/12/14 07:45:22;;;;;;;21.87;12.97;;;-1.40;99.90;;;;;;5025285;28;20951;-84
2022/12/14 07:47:50;;;;;;;23.80;12.60;;;-1.30;99.90;;;;;;5027418;28;20440;-85
2022/12/14 07:50:18;;;;;;;20.93;13.07;;;-1.40;99.90;;;;;;5027623;28;20437;-85
2022/12/14 07:52:45;;;;;;;22.50;12.53;;;-1.20;99.90;;;;;;5025988;28;20801;-83
2022/12/14 07:55:11;;;;;;;22.67;12.73;;;-1.10;99.90;;;;;;5030042;28;20448;-86
2022/12/14 07:57:38;;;;;;;25.27;13.27;;;-1.20;99.90;;;;;;5036329;28;20821;-84
2022/12/14 08:00:07;;;;;;;20.30;13.07;;;-1.30;99.90;;;;;;5036311;28;20444;-83
2022/12/14 08:02:34;;;;;;;25.33;14.20;;;-1.30;99.90;;;;;;5028792;28;20437;-85
2022/12/14 08:05:01;;;;;;;22.90;13.90;;;-1.20;99.90;;;;;;5034954;28;20889;-85
2022/12/14 08:07:30;;;;;;;24.90;13.53;;;-1.30;99.90;;;;;;5035884;28;20440;-85
2022/12/14 08:09:57;;;;;;;25.17;13.33;;;-1.30;99.90;;;;;;5036219;28;20465;-83
2022/12/14 08:12:25;;;;;;;26.60;14.17;;;-1.40;99.90;;;;;;5036154;28;20448;-82
2022/12/14 08:14:52;;;;;;;25.10;13.30;;;-1.50;99.90;;;;;;5036631;28;20461;-85
2022/12/14 08:17:19;;;;;;;22.80;14.77;;;-1.80;99.90;;;;;;5036248;28;20448;-85
2022/12/14 08:19:45;;;;;;;28.40;14.23;;;-1.70;99.90;;;;;;5036153;28;20479;-86
2022/12/14 08:22:12;;;;;;;22.43;13.13;;;-1.70;99.90;;;;;;5024505;28;20434;-84
2022/12/14 08:24:40;;;;;;;24.70;13.93;;;-1.70;99.90;;;;;;5016279;28;20488;-84
2022/12/14 08:27:07;;;;;;;25.97;14.10;;;-1.60;99.90;;;;;;5016308;28;20449;-83
2022/12/14 08:29:35;;;;;;;25.90;14.23;;;-1.50;99.90;;;;;;5015036;28;20457;-83
2022/12/14 08:32:02;;;;;;;26.50;16.77;;;-1.50;99.90;;;;;;5016165;28;20438;-79
2022/12/14 08:34:29;;;;;;;29.27;16.23;;;-1.40;99.90;;;;;;5016026;28;20434;-84
2022/12/14 08:36:55;;;;;;;30.60;18.63;;;-1.30;99.90;;;;;;5017204;28;20445;-80
2022/12/14 08:39:22;;;;;;;24.63;14.93;;;-1.30;99.90;;;;;;5017947;28;20476;-83
2022/12/14 08:41:51;;;;;;;32.97;19.70;;;-1.30;99.90;;;;;;5017749;28;20915;-82
2022/12/14 08:44:18;;;;;;;26.43;16.07;;;-1.60;99.90;;;;;;5037041;28;20238;-81
2022/12/14 08:46:45;;;;;;;24.07;15.33;;;-1.70;99.90;;;;;;5038355;28;20448;-83
2022/12/14 08:49:12;;;;;;;23.23;15.27;;;-1.70;99.90;;;;;;5036274;28;20441;-82
2022/12/14 08:51:39;;;;;;;23.93;13.73;;;-1.70;99.90;;;;;;5027279;28;20438;-80
2022/12/14 08:54:06;;;;;;;23.80;14.90;;;-1.70;99.90;;;;;;5025506;28;20433;-80
2022/12/14 08:56:33;;;;;;;21.73;13.77;;;-1.60;99.90;;;;;;5025220;28;20433;-82
2022/12/14 08:59:03;;;;;;;26.00;14.53;;;-1.40;99.90;;;;;;5031257;28;20441;-86
2022/12/14 09:01:31;;;;;;;25.87;14.17;;;-1.40;99.90;;;;;;5035188;28;20441;-87
2022/12/14 09:04:02;;;;;;;22.47;14.07;;;-1.50;99.90;;;;;;5036023;28;20488;-86
2022/12/14 09:06:34;;;;;;;28.37;15.20;;;-1.50;99.90;;;;;;5036815;28;20457;-85
2022/12/14 09:09:01;;;;;;;23.97;14.77;;;-1.40;99.90;;;;;;5035243;28;20452;-86
2022/12/14 09:11:28;;;;;;;26.30;15.63;;;-1.20;99.90;;;;;;5035775;28;20450;-84
2022/12/14 09:13:55;;;;;;;23.10;14.23;;;-1.10;99.90;;;;;;5035976;28;20456;-86
2022/12/14 09:16:26;;;;;;;21.80;13.63;;;-1.30;99.90;;;;;;5034295;28;20440;-87
2022/12/14 09:18:58;;;;;;;26.10;14.23;;;-1.40;99.90;;;;;;5018261;28;20479;-85
2022/12/14 09:21:25;;;;;;;21.43;14.03;;;-1.50;99.90;;;;;;5025202;28;20431;-86
2022/12/14 09:23:52;;;;;;;25.63;14.43;;;-1.50;99.90;;;;;;5024882;28;20476;-87
2022/12/14 09:26:21;;;;;;;23.33;14.63;;;-1.40;99.90;;;;;;5025810;28;20447;-87
2022/12/14 09:28:50;;;;;;;25.63;14.30;;;-1.40;99.90;;;;;;5024087;28;20458;-86
2022/12/14 09:31:19;;;;;;;27.10;14.50;;;-1.30;99.90;;;;;;5024320;28;20437;-86
2022/12/14 09:33:49;;;;;;;27.93;14.90;;;-1.40;99.90;;;;;;5018288;28;20453;-87
2022/12/14 09:36:17;;;;;;;24.23;13.53;;;-1.50;99.90;;;;;;5023458;28;20929;-81
2022/12/14 09:38:45;;;;;;;22.37;14.03;;;-1.50;99.90;;;;;;5015141;28;20471;-84
2022/12/14 09:41:29;;;;;;;24.90;15.00;;;-1.40;99.90;;;;;;5014384;28;20454;-83
2022/12/14 09:44:02;;;;;;;25.43;15.33;;;-1.40;99.90;;;;;;5014449;28;20501;-82
2022/12/14 09:46:46;;;;;;;26.10;14.80;;;-1.40;99.90;;;;;;5013841;28;20540;-83
2022/12/14 09:49:25;;;;;;;27.27;14.70;;;-1.30;99.90;;;;;;5014677;28;20442;-84
2022/12/14 09:51:54;;;;;;;23.93;14.90;;;-1.30;99.90;;;;;;5014410;28;20452;-83
2022/12/14 09:54:25;;;;;;;24.53;14.60;;;-1.10;99.90;;;;;;5014340;28;20445;-82
2022/12/14 09:56:53;;;;;;;31.23;15.50;;;-0.90;99.90;;;;;;5014105;28;20449;-81
2022/12/14 09:59:21;;;;;;;26.97;15.70;;;-1.00;99.90;;;;;;5013713;28;20464;-83
2022/12/14 10:01:57;;;;;;;24.93;15.47;;;-1.10;99.90;;;;;;5014059;28;20453;-85
2022/12/14 10:04:40;;;;;;;27.93;15.97;;;-1.10;99.90;;;;;;5014558;28;20487;-81
2022/12/14 10:07:13;;;;;;;26.57;15.57;;;-1.00;99.90;;;;;;5014339;28;20819;-84
2022/12/14 10:09:46;;;;;;;24.65;15.40;;;-0.80;99.90;;;;;;5014288;28;20464;-84
2022/12/14 10:12:28;;;;;;;34.63;17.43;;;-0.90;99.90;;;;;;5014474;28;20204;-83
2022/12/14 10:15:13;;;;;;;27.10;15.73;;;-0.80;99.90;;;;;;5014544;28;20472;-85
2022/12/14 10:18:11;;;;;;;29.00;15.30;;;-0.90;99.90;;;;;;5015075;28;20445;-86
2022/12/14 10:20:47;;;;;;;21.20;13.43;;;-0.80;99.90;;;;;;5013904;28;20454;-84
2022/12/14 10:23:18;;;;;;;23.77;13.77;;;-0.90;99.90;;;;;;5013873;28;20945;-86
2022/12/14 10:25:46;;;;;;;23.03;14.57;;;-1.00;99.90;;;;;;5013810;28;20517;-86
2022/12/14 10:28:17;;;;;;;23.47;13.57;;;-1.10;99.90;;;;;;5014265;28;20457;-85
2022/12/14 10:30:44;;;;;;;27.93;14.43;;;-0.90;99.90;;;;;;5014364;28;20449;-90
2022/12/14 10:33:17;;;;;;;25.03;14.87;;;-1.00;99.90;;;;;;5014904;28;20449;-88
2022/12/14 10:35:50;;;;;;;26.83;14.53;;;-0.80;99.90;;;;;;5014712;28;20441;-89
2022/12/14 10:38:25;;;;;;;23.03;14.87;;;-0.80;99.90;;;;;;5014263;28;20519;-90
2022/12/14 10:40:57;;;;;;;33.07;20.90;;;-0.80;99.90;;;;;;5013440;28;20445;-89
2022/12/14 10:43:36;;;;;;;24.50;16.07;;;-0.60;99.90;;;;;;5014239;28;20774;-88
2022/12/14 10:46:17;;;;;;;28.00;15.97;;;-0.50;99.90;;;;;;5014123;28;20956;-88
2022/12/14 10:48:53;;;;;;;28.13;14.90;;;-0.60;99.90;;;;;;5014185;28;20445;-89
2022/12/14 10:51:27;;;;;;;23.20;13.67;;;-0.70;99.90;;;;;;5013643;28;20453;-89
2022/12/14 10:54:02;;;;;;;23.87;13.97;;;-0.70;99.90;;;;;;5018450;28;20440;-88
2022/12/14 10:56:33;;;;;;;23.53;14.00;;;-0.50;99.90;;;;;;5018515;28;20432;-89
2022/12/14 10:59:25;;;;;;;23.00;14.50;;;-0.50;99.90;;;;;;5018639;28;20843;-84
2022/12/14 11:02:03;;;;;;;25.73;15.73;;;-0.60;99.90;;;;;;5017874;28;20535;-88
2022/12/14 11:04:36;;;;;;;24.13;15.73;;;-0.50;99.90;;;;;;5018433;28;20512;-90
2022/12/14 11:07:06;;;;;;;28.27;15.10;;;-0.50;99.90;;;;;;5017651;28;20436;-86
2022/12/14 11:09:34;;;;;;;26.33;15.17;;;-0.40;99.90;;;;;;5018197;28;20457;-87
2022/12/14 11:12:04;;;;;;;29.00;15.57;;;-0.40;99.90;;;;;;5018022;28;20445;-91
2022/12/14 11:14:32;;;;;;;26.13;15.33;;;-0.40;99.90;;;;;;5017580;28;20445;-83
2022/12/14 11:16:59;;;;;;;24.67;15.20;;;-0.40;99.90;;;;;;5017616;28;20449;-82
2022/12/14 11:19:32;;;;;;;26.77;15.33;;;-0.20;99.90;;;;;;5017646;28;20449;-82
2022/12/14 11:22:11;;;;;;;26.53;15.13;;;-0.20;99.90;;;;;;5016854;28;20455;-83
2022/12/14 11:24:45;;;;;;;24.83;14.43;;;-0.40;99.90;;;;;;5017292;28;20513;-83
2022/12/14 11:27:16;;;;;;;26.27;15.27;;;-0.30;99.90;;;;;;5016892;28;20499;-82
2022/12/14 11:29:48;;;;;;;24.80;13.83;;;-0.30;99.90;;;;;;5017110;28;20449;-83
2022/12/14 11:32:22;;;;;;;27.53;15.00;;;-0.30;99.90;;;;;;5017236;28;20437;-85
2022/12/14 11:34:56;;;;;;;24.77;14.83;;;-0.10;99.90;;;;;;5016945;28;20445;-85
2022/12/14 11:37:26;;;;;;;21.70;14.70;;;-0.10;99.90;;;;;;5017033;28;20487;-83
2022/12/14 11:39:55;;;;;;;29.08;22.38;;;-0.10;99.90;;;;;;5023171;28;20432;-86
2022/12/14 11:42:23;;;;;;;26.27;17.00;;;0.20;99.90;;;;;;5034069;28;20204;-86
2022/12/14 11:44:50;;;;;;;31.90;19.37;;;0.10;99.90;;;;;;5036361;28;20488;-83
2022/12/14 11:47:20;;;;;;;27.43;16.80;;;0.10;99.90;;;;;;5036436;28;20920;-84
2022/12/14 11:49:49;;;;;;;26.93;15.90;;;0.10;99.90;;;;;;5036369;28;20480;-84
2022/12/14 11:52:18;;;;;;;31.17;16.33;;;0.10;99.90;;;;;;5036550;28;20471;-86
2022/12/14 11:55:02;;;;;;;26.03;15.17;;;0.00;99.90;;;;;;5036289;28;20440;-87
2022/12/14 11:57:33;;;;;;;26.50;15.17;;;0.00;99.90;;;;;;5036594;28;20429;-82
2022/12/14 12:00:02;;;;;;;25.57;15.27;;;0.40;99.90;;;;;;5029033;28;20978;-84
2022/12/14 12:02:32;;;;;;;24.83;15.07;;;0.50;99.90;;;;;;5016562;28;20426;-83
2022/12/14 12:05:06;;;;;;;27.40;15.53;;;0.20;99.90;;;;;;5014683;28;20507;-84
2022/12/14 12:07:35;;;;;;;24.50;15.70;;;0.30;99.90;;;;;;5016478;28;20444;-84
2022/12/14 12:10:14;;;;;;;27.07;15.83;;;0.20;99.90;;;;;;5015803;28;20468;-82
2022/12/14 12:12:48;;;;;;;23.37;14.57;;;0.20;99.90;;;;;;5016294;28;20449;-85
2022/12/14 12:15:18;;;;;;;23.27;14.83;;;0.10;99.90;;;;;;5016433;28;20445;-82
2022/12/14 12:17:50;;;;;;;22.37;13.97;;;0.00;99.90;;;;;;5015883;28;20457;-86
2022/12/14 12:20:29;;;;;;;27.23;17.23;;;0.10;99.90;;;;;;5016396;28;20454;-82
2022/12/14 12:23:04;;;;;;;27.83;16.07;;;0.20;99.90;;;;;;5016823;28;20438;-83
2022/12/14 12:25:35;;;;;;;25.37;15.23;;;0.10;99.90;;;;;;5016203;28;20488;-85
2022/12/14 12:28:11;;;;;;;24.03;14.87;;;0.20;99.90;;;;;;5016540;28;20445;-85
2022/12/14 12:30:43;;;;;;;25.77;15.73;;;0.40;99.90;;;;;;5015992;28;20453;-84
2022/12/14 12:33:22;;;;;;;24.07;15.20;;;0.40;99.90;;;;;;5016029;28;20957;-84
2022/12/14 12:35:53;;;;;;;28.90;16.77;;;0.60;99.90;;;;;;5015537;28;20453;-85
2022/12/14 12:38:31;;;;;;;25.97;16.40;;;0.40;99.90;;;;;;5015459;28;20835;-83
2022/12/14 12:41:09;;;;;;;28.07;16.33;;;0.50;99.90;;;;;;5015900;28;20991;-83
2022/12/14 12:43:41;;;;;;;28.23;15.83;;;0.50;99.90;;;;;;5015743;28;20449;-80
2022/12/14 12:46:15;;;;;;;27.77;16.40;;;0.60;99.90;;;;;;5016053;28;20488;-79
2022/12/14 12:48:49;;;;;;;25.10;16.33;;;0.70;99.90;;;;;;5015183;28;20924;-85
2022/12/14 12:51:22;;;;;;;26.67;15.97;;;0.40;99.90;;;;;;5015677;28;20453;-86
2022/12/14 12:53:55;;;;;;;31.73;19.00;;;0.50;99.90;;;;;;5015545;28;20449;-81
2022/12/14 12:56:33;;;;;;;27.20;17.30;;;0.40;99.90;;;;;;5015149;28;20456;-81
2022/12/14 12:59:01;;;;;;;27.20;15.60;;;0.40;99.90;;;;;;5014844;28;20457;-83
2022/12/14 13:01:35;;;;;;;25.57;15.23;;;0.40;99.90;;;;;;5014729;28;20937;-77